Time;durP1;ratioP1;P1;durP2;ratioP2;P2;SDS_P1;SDS_P2;PMS_P1;PMS_P2;Temp;Humidity;BMP_temperature;BMP_pressure;BME280_temperature;BME280_humidity;BME280_pressure;Samples;Min_cycle;Max_cycle;Signal;HPM_P1;HPM_P2
2023/10/19 00:02:15;;;;;;;48.35;28.05;;;6.40;99.90;;;;;;5041464;28;20029;-80
2023/10/19 00:04:41;;;;;;;48.28;29.10;;;6.40;99.90;;;;;;5044553;28;20076;-81
2023/10/19 00:07:08;;;;;;;54.33;29.20;;;6.40;99.90;;;;;;5037357;28;20033;-81
2023/10/19 00:09:38;;;;;;;55.08;29.58;;;6.40;99.90;;;;;;5038065;28;20049;-81
2023/10/19 00:12:09;;;;;;;51.58;29.80;;;6.40;99.90;;;;;;5041294;28;20052;-82
2023/10/19 00:14:35;;;;;;;57.63;31.35;;;6.40;99.90;;;;;;5037871;28;20500;-81
2023/10/19 00:17:11;;;;;;;53.28;30.83;;;6.30;99.90;;;;;;5037356;28;20025;-80
2023/10/19 00:19:42;;;;;;;52.85;31.38;;;6.40;99.90;;;;;;5034581;28;20033;-80
2023/10/19 00:22:08;;;;;;;55.78;30.08;;;6.40;99.90;;;;;;5038865;28;20068;-82
2023/10/19 00:24:38;;;;;;;54.78;31.08;;;6.40;99.90;;;;;;5045700;28;20045;-81
2023/10/19 00:27:15;;;;;;;55.05;29.98;;;6.40;99.90;;;;;;5027140;28;20026;-81
2023/10/19 00:30:06;;;;;;;50.28;29.55;;;6.40;99.90;;;;;;5031999;28;20629;-80
2023/10/19 00:32:34;;;;;;;51.80;30.02;;;6.40;99.90;;;;;;5034286;28;20037;-81
2023/10/19 00:35:08;;;;;;;54.38;30.13;;;6.40;99.90;;;;;;5031960;28;20084;-81
2023/10/19 00:37:42;;;;;;;51.28;29.13;;;6.50;99.90;;;;;;5031060;28;20037;-82
2023/10/19 00:40:33;;;;;;;52.80;30.27;;;6.40;99.90;;;;;;5024181;28;20038;-83
2023/10/19 00:43:06;;;;;;;51.97;30.05;;;6.50;99.90;;;;;;5038436;28;20029;-80
2023/10/19 00:45:34;;;;;;;51.22;28.52;;;6.40;99.90;;;;;;5029653;28;20190;-82
2023/10/19 00:48:04;;;;;;;55.00;28.42;;;6.50;99.90;;;;;;5030852;28;20029;-82
2023/10/19 00:50:31;;;;;;;51.55;28.55;;;6.50;99.90;;;;;;5028004;28;20053;-81
2023/10/19 00:52:58;;;;;;;56.70;30.92;;;6.50;99.90;;;;;;5029620;28;20061;-82
2023/10/19 00:55:28;;;;;;;51.35;29.65;;;6.50;99.90;;;;;;5023684;28;20038;-84
2023/10/19 00:57:54;;;;;;;50.38;28.08;;;6.50;99.90;;;;;;5028381;28;20045;-82
2023/10/19 01:00:43;;;;;;;52.50;28.85;;;6.50;99.90;;;;;;5007986;28;20766;-83
2023/10/19 01:03:09;;;;;;;55.65;30.85;;;6.50;99.90;;;;;;5025798;28;20037;-84
2023/10/19 01:05:36;;;;;;;50.10;29.25;;;6.50;99.90;;;;;;5030291;28;20034;-81
2023/10/19 01:08:24;;;;;;;54.80;29.88;;;6.50;99.90;;;;;;5028597;28;20437;-83
2023/10/19 01:10:52;;;;;;;;;;;6.60;99.90;;;;;;5035238;28;20087;-80
2023/10/19 01:13:36;;;;;;;50.65;28.50;;;6.60;99.90;;;;;;5036235;28;20296;-80
2023/10/19 01:16:04;;;;;;;45.90;27.85;;;6.60;99.90;;;;;;5036927;28;20029;-81
2023/10/19 01:18:32;;;;;;;53.33;28.60;;;6.60;99.90;;;;;;5043886;28;20033;-80
2023/10/19 01:21:06;;;;;;;50.78;28.88;;;6.60;99.90;;;;;;5036135;28;20811;-80
2023/10/19 01:23:35;;;;;;;50.38;28.38;;;6.60;99.90;;;;;;5037634;28;20049;-82
2023/10/19 01:26:05;;;;;;;51.53;30.10;;;6.70;99.90;;;;;;5036777;28;20072;-82
2023/10/19 01:34:00;;;;;;;52.00;28.40;;;6.80;99.90;;;;;;5042898;28;20604;-81
2023/10/19 01:36:27;;;;;;;47.65;27.30;;;6.80;99.90;;;;;;5034463;28;20226;-81
2023/10/19 01:38:55;;;;;;;46.45;28.15;;;6.90;99.90;;;;;;5034218;28;20061;-81
2023/10/19 01:41:23;;;;;;;46.42;27.60;;;6.90;99.90;;;;;;5033235;28;20132;-80
2023/10/19 01:43:54;;;;;;;46.33;28.95;;;6.80;99.90;;;;;;5045787;28;20037;-81
2023/10/19 01:46:23;;;;;;;48.05;29.02;;;6.80;99.90;;;;;;5035119;28;20040;-79
2023/10/19 01:49:08;;;;;;;52.03;29.77;;;6.70;99.90;;;;;;5024402;28;20108;-83
2023/10/19 01:51:38;;;;;;;51.92;30.70;;;6.70;99.90;;;;;;5029235;28;20045;-84
2023/10/19 01:54:06;;;;;;;55.67;30.30;;;6.70;99.90;;;;;;5031003;28;20091;-83
2023/10/19 01:56:35;;;;;;;52.75;29.13;;;6.70;99.90;;;;;;5031313;28;20639;-82
2023/10/19 01:59:03;;;;;;;53.88;31.05;;;6.70;99.90;;;;;;5029174;28;20940;-82
2023/10/19 02:01:32;;;;;;;50.88;28.60;;;6.60;99.90;;;;;;5035914;28;20021;-83
2023/10/19 02:04:00;;;;;;;55.80;30.58;;;6.60;99.90;;;;;;5048341;28;20560;-81
2023/10/19 02:06:29;;;;;;;55.20;30.92;;;6.60;99.90;;;;;;5013205;28;20033;-82
2023/10/19 02:09:03;;;;;;;55.17;31.25;;;6.60;99.90;;;;;;5028867;28;20095;-80
2023/10/19 02:11:28;;;;;;;54.00;30.60;;;6.60;99.90;;;;;;5036222;28;20037;-81
2023/10/19 02:13:59;;;;;;;56.92;31.45;;;6.60;99.90;;;;;;5036406;28;20092;-81
2023/10/19 02:16:29;;;;;;;57.50;31.58;;;6.60;99.90;;;;;;5035391;28;20569;-80
2023/10/19 02:18:55;;;;;;;48.53;29.38;;;6.60;99.90;;;;;;5036698;28;20056;-79
2023/10/19 02:21:30;;;;;;;55.35;32.83;;;6.50;99.90;;;;;;5036970;28;20025;-81
2023/10/19 02:24:00;;;;;;;52.75;31.63;;;6.50;99.90;;;;;;5028868;28;20041;-82
2023/10/19 02:26:44;;;;;;;52.25;29.98;;;6.50;99.90;;;;;;5035502;28;20124;-81
2023/10/19 02:29:10;;;;;;;59.30;33.22;;;6.50;99.90;;;;;;5036061;28;20022;-79
2023/10/19 02:31:37;;;;;;;58.72;33.08;;;6.50;99.90;;;;;;5034228;28;20021;-81
2023/10/19 02:34:07;;;;;;;65.22;33.45;;;6.50;99.90;;;;;;5049865;28;20025;-79
2023/10/19 02:36:34;;;;;;;58.95;32.97;;;6.50;99.90;;;;;;5037160;28;20032;-80
2023/10/19 02:39:11;;;;;;;56.83;32.20;;;6.50;99.90;;;;;;5034226;28;20048;-80
2023/10/19 02:41:38;;;;;;;59.63;32.92;;;6.50;99.90;;;;;;5033749;28;20120;-81
2023/10/19 02:44:09;;;;;;;59.20;33.58;;;6.50;99.90;;;;;;5035920;28;20036;-81
2023/10/19 02:46:38;;;;;;;56.65;32.95;;;6.50;99.90;;;;;;5035211;28;20107;-82
2023/10/19 02:49:11;;;;;;;61.13;33.22;;;6.50;99.90;;;;;;5036461;28;20088;-81
2023/10/19 02:51:47;;;;;;;62.25;33.45;;;6.60;99.90;;;;;;5037479;28;20080;-80
2023/10/19 02:54:20;;;;;;;;;;;6.60;99.90;;;;;;5036127;28;20432;-80
2023/10/19 02:56:56;;;;;;;51.92;30.17;;;6.60;99.90;;;;;;5027449;28;19921;-80
2023/10/19 02:59:23;;;;;;;50.85;30.48;;;6.70;99.90;;;;;;5028252;28;20394;-81
2023/10/19 03:04:40;;;;;;;53.40;31.98;;;6.70;99.90;;;;;;5029058;28;20045;-81
2023/10/19 03:07:07;;;;;;;58.42;32.38;;;6.60;99.90;;;;;;5052972;28;20446;-80
2023/10/19 03:09:36;;;;;;;63.47;34.80;;;6.60;99.90;;;;;;5034212;28;20030;-80
2023/10/19 03:12:04;;;;;;;57.05;34.00;;;6.60;99.90;;;;;;5035091;28;20041;-80
2023/10/19 03:14:31;;;;;;;58.28;32.20;;;6.50;99.90;;;;;;5044360;28;20025;-80
2023/10/19 03:16:59;;;;;;;60.45;34.53;;;6.60;99.90;;;;;;5039142;28;20038;-81
2023/10/19 03:19:25;;;;;;;57.95;33.20;;;6.60;99.90;;;;;;5037999;28;20483;-81
2023/10/19 03:21:52;;;;;;;64.40;34.28;;;6.50;99.90;;;;;;5030998;28;20036;-79
2023/10/19 03:24:40;;;;;;;64.22;33.85;;;6.50;99.90;;;;;;5038786;28;20033;-82
2023/10/19 03:27:17;;;;;;;63.40;35.90;;;6.50;99.90;;;;;;5025969;28;20056;-82
2023/10/19 03:29:53;;;;;;;64.00;35.65;;;6.50;99.90;;;;;;5010157;28;20045;-82
2023/10/19 03:32:26;;;;;;;64.15;35.38;;;6.40;99.90;;;;;;5036597;28;20700;-80
2023/10/19 03:34:55;;;;;;;66.97;37.50;;;6.50;99.90;;;;;;5037811;28;20325;-78
2023/10/19 03:37:24;;;;;;;69.07;36.75;;;6.50;99.90;;;;;;5038224;28;20052;-80
2023/10/19 03:39:51;;;;;;;67.88;36.17;;;6.50;99.90;;;;;;5038323;28;20022;-80
2023/10/19 03:42:18;;;;;;;64.65;36.40;;;6.50;99.90;;;;;;5040005;28;20336;-79
2023/10/19 03:47:20;;;;;;;66.95;35.45;;;6.40;99.90;;;;;;5038069;28;20052;-80
2023/10/19 03:49:47;;;;;;;65.68;36.05;;;6.50;99.90;;;;;;5040524;28;20040;-81
2023/10/19 03:54:40;;;;;;;63.08;34.42;;;6.40;99.90;;;;;;5037991;28;20040;-80
2023/10/19 03:57:11;;;;;;;73.72;37.38;;;6.40;99.90;;;;;;5036635;28;20061;-79
2023/10/19 03:59:41;;;;;;;68.13;37.22;;;6.40;99.90;;;;;;5034550;28;20632;-80
2023/10/19 04:02:14;;;;;;;66.20;35.35;;;6.40;99.90;;;;;;5044119;28;20454;-80
2023/10/19 04:04:43;;;;;;;71.97;37.70;;;6.50;99.90;;;;;;5038934;28;20038;-80
2023/10/19 04:07:14;;;;;;;64.68;35.72;;;6.50;99.90;;;;;;5024938;28;20022;-79
2023/10/19 04:12:28;;;;;;;73.50;37.28;;;6.40;99.90;;;;;;5039051;28;20070;-79
2023/10/19 04:14:56;;;;;;;62.33;36.05;;;6.40;99.90;;;;;;5032230;28;20115;-79
2023/10/19 04:17:23;;;;;;;72.35;38.20;;;6.40;99.90;;;;;;5027207;28;20064;-79
2023/10/19 04:19:51;;;;;;;75.47;38.85;;;6.40;99.90;;;;;;5037055;28;20029;-79
2023/10/19 04:22:23;;;;;;;70.82;38.83;;;6.40;99.90;;;;;;5041443;28;20037;-81
2023/10/19 04:24:50;;;;;;;74.72;38.25;;;6.40;99.90;;;;;;5045298;28;20029;-80
2023/10/19 04:27:16;;;;;;;81.22;40.55;;;6.40;99.90;;;;;;5035715;28;20113;-80
2023/10/19 04:29:43;;;;;;;72.60;39.50;;;6.40;99.90;;;;;;5040308;28;20046;-79
2023/10/19 04:32:09;;;;;;;76.65;38.55;;;6.30;99.90;;;;;;5039867;28;20021;-80
2023/10/19 04:34:39;;;;;;;78.80;40.22;;;6.40;99.90;;;;;;5044950;28;20052;-80
2023/10/19 04:37:04;;;;;;;75.07;38.95;;;6.40;99.90;;;;;;5034063;28;20036;-78
2023/10/19 04:39:30;;;;;;;79.35;40.08;;;6.40;99.90;;;;;;5037420;28;20029;-80
2023/10/19 04:41:56;;;;;;;73.28;40.20;;;6.40;99.90;;;;;;5039779;28;20029;-80
2023/10/19 04:44:22;;;;;;;84.70;40.88;;;6.40;99.90;;;;;;5039082;28;20029;-79
2023/10/19 04:46:48;;;;;;;81.32;40.83;;;6.40;99.90;;;;;;5037733;28;20045;-79
2023/10/19 04:49:16;;;;;;;79.38;41.75;;;6.40;99.90;;;;;;5037707;28;20049;-81
2023/10/19 04:51:43;;;;;;;80.30;41.08;;;6.40;99.90;;;;;;5035222;28;20052;-77
2023/10/19 04:54:09;;;;;;;74.32;39.47;;;6.40;99.90;;;;;;5038245;28;20037;-81
2023/10/19 04:56:38;;;;;;;74.07;39.85;;;6.40;99.90;;;;;;5032294;28;20025;-80
2023/10/19 04:59:22;;;;;;;83.22;41.85;;;6.40;99.90;;;;;;5035531;28;20107;-79
2023/10/19 05:01:50;;;;;;;77.55;41.47;;;6.40;99.90;;;;;;5034314;28;20128;-82
2023/10/19 05:04:17;;;;;;;80.15;41.28;;;6.40;99.90;;;;;;5038410;28;20041;-82
2023/10/19 05:06:42;;;;;;;83.30;40.22;;;6.30;99.90;;;;;;5030433;28;20038;-81
2023/10/19 05:09:09;;;;;;;82.30;41.20;;;6.30;99.90;;;;;;5026358;28;20029;-80
2023/10/19 05:11:35;;;;;;;80.93;42.00;;;6.40;99.90;;;;;;5029934;28;20029;-78
2023/10/19 05:14:01;;;;;;;78.05;40.50;;;6.40;99.90;;;;;;5037837;28;20042;-79
2023/10/19 05:16:27;;;;;;;80.93;41.15;;;6.40;99.90;;;;;;5030606;28;20379;-81
2023/10/19 05:18:53;;;;;;;80.85;41.97;;;6.40;99.90;;;;;;5030860;28;20068;-81
2023/10/19 05:21:19;;;;;;;79.72;40.65;;;6.40;99.90;;;;;;5026529;28;20041;-80
2023/10/19 05:23:45;;;;;;;86.10;43.17;;;6.40;99.90;;;;;;5028827;28;20738;-81
2023/10/19 05:26:12;;;;;;;80.25;41.50;;;6.40;99.90;;;;;;5028791;28;20029;-82
2023/10/19 05:28:38;;;;;;;77.55;40.28;;;6.40;99.90;;;;;;5022078;28;20081;-82
2023/10/19 05:31:04;;;;;;;81.50;40.78;;;6.50;99.90;;;;;;5029698;28;20618;-77
2023/10/19 05:33:30;;;;;;;81.60;41.30;;;6.50;99.90;;;;;;5028917;28;20071;-82
2023/10/19 05:35:56;;;;;;;76.60;39.03;;;6.50;99.90;;;;;;5032790;28;20034;-83
2023/10/19 05:38:22;;;;;;;76.50;40.15;;;6.50;99.90;;;;;;5037058;28;20037;-82
2023/10/19 05:40:49;;;;;;;80.93;41.63;;;6.50;99.90;;;;;;5029582;28;20033;-83
2023/10/19 05:43:15;;;;;;;77.95;40.05;;;6.50;99.90;;;;;;5031641;28;20040;-84
2023/10/19 05:45:41;;;;;;;80.32;41.67;;;6.50;99.90;;;;;;5029591;28;20033;-82
2023/10/19 05:48:07;;;;;;;79.68;39.42;;;6.40;99.90;;;;;;5022690;28;20290;-83
2023/10/19 05:50:34;;;;;;;76.07;38.65;;;6.50;99.90;;;;;;5031280;28;20041;-82
2023/10/19 05:53:00;;;;;;;74.63;38.40;;;6.50;99.90;;;;;;5035323;28;20030;-79
2023/10/19 05:55:26;;;;;;;74.95;38.33;;;6.50;99.90;;;;;;5020039;28;20097;-80
2023/10/19 05:57:52;;;;;;;80.90;39.75;;;6.50;99.90;;;;;;5029826;28;20088;-82
2023/10/19 06:00:20;;;;;;;77.43;39.03;;;6.50;99.90;;;;;;5029111;28;20030;-82
2023/10/19 06:02:48;;;;;;;77.45;39.92;;;6.50;99.90;;;;;;5029779;28;20040;-81
2023/10/19 06:05:17;;;;;;;75.50;39.20;;;6.50;99.90;;;;;;5019783;28;20018;-81
2023/10/19 06:07:47;;;;;;;82.32;38.65;;;6.50;99.90;;;;;;5027897;28;20033;-81
2023/10/19 06:10:15;;;;;;;83.00;40.72;;;6.50;99.90;;;;;;5028949;28;20045;-81
2023/10/19 06:12:45;;;;;;;83.47;40.50;;;6.50;99.90;;;;;;5033542;28;20047;-80
2023/10/19 06:15:13;;;;;;;86.47;42.08;;;6.50;99.90;;;;;;5030008;28;20489;-80
2023/10/19 06:17:42;;;;;;;83.97;41.17;;;6.60;99.90;;;;;;5032032;28;20042;-81
2023/10/19 06:20:29;;;;;;;78.55;39.58;;;6.60;99.90;;;;;;5033467;28;20076;-80
2023/10/19 06:23:00;;;;;;;76.15;39.40;;;6.60;99.90;;;;;;5037363;28;20045;-81
2023/10/19 06:25:26;;;;;;;77.95;39.78;;;6.60;99.90;;;;;;5035877;28;20068;-81
2023/10/19 06:27:53;;;;;;;65.63;36.08;;;6.60;99.90;;;;;;5035652;28;20030;-82
2023/10/19 06:30:22;;;;;;;70.10;36.42;;;6.60;99.90;;;;;;5032925;28;20087;-80
2023/10/19 06:32:50;;;;;;;67.82;36.13;;;6.70;99.90;;;;;;5032100;28;20061;-83
2023/10/19 06:35:17;;;;;;;58.30;34.85;;;6.70;99.90;;;;;;5034697;28;20497;-82
2023/10/19 06:37:43;;;;;;;70.40;36.53;;;6.70;99.90;;;;;;5035242;28;20114;-82
2023/10/19 06:40:14;;;;;;;62.55;35.53;;;6.70;99.90;;;;;;5039866;28;20071;-83
2023/10/19 06:42:45;;;;;;;61.05;35.03;;;6.70;99.90;;;;;;5034497;28;20025;-82
2023/10/19 06:45:13;;;;;;;66.95;37.05;;;6.70;99.90;;;;;;5033684;28;20097;-82
2023/10/19 06:47:44;;;;;;;64.63;35.35;;;6.80;99.90;;;;;;5033251;28;20037;-81
2023/10/19 06:50:12;;;;;;;66.35;35.35;;;6.70;99.90;;;;;;5035480;28;20036;-83
2023/10/19 06:52:39;;;;;;;63.05;34.83;;;6.70;99.90;;;;;;5037534;28;20038;-82
2023/10/19 06:55:25;;;;;;;62.85;35.92;;;6.70;99.90;;;;;;5042290;28;20025;-82
2023/10/19 06:57:53;;;;;;;66.10;36.50;;;6.80;99.90;;;;;;5033845;28;20033;-83
2023/10/19 07:00:22;;;;;;;78.57;42.28;;;6.70;99.90;;;;;;5032637;28;20040;-82
2023/10/19 07:02:52;;;;;;;62.58;36.60;;;6.80;99.90;;;;;;5038915;28;20034;-81
2023/10/19 07:05:21;;;;;;;69.32;38.65;;;6.70;99.90;;;;;;5032571;28;20037;-84
2023/10/19 07:07:50;;;;;;;64.15;35.55;;;6.70;99.90;;;;;;5032630;28;20735;-80
2023/10/19 07:10:17;;;;;;;66.10;33.65;;;6.80;99.90;;;;;;5032863;28;20067;-80
2023/10/19 07:12:46;;;;;;;69.47;36.08;;;6.80;99.90;;;;;;5036281;28;20033;-79
2023/10/19 07:15:15;;;;;;;64.65;34.83;;;6.80;99.90;;;;;;5020146;28;20080;-80
2023/10/19 07:17:42;;;;;;;67.60;35.03;;;6.80;99.90;;;;;;5034708;28;20112;-79
2023/10/19 07:20:21;;;;;;;66.68;35.58;;;6.90;99.90;;;;;;5038686;28;20029;-79
2023/10/19 07:22:48;;;;;;;63.78;35.25;;;6.90;99.90;;;;;;5036538;28;20079;-81
2023/10/19 07:25:13;;;;;;;70.05;37.40;;;6.90;99.90;;;;;;5039073;28;20029;-80
2023/10/19 07:27:42;;;;;;;73.60;38.40;;;6.80;99.90;;;;;;5038372;28;20045;-79
2023/10/19 07:30:09;;;;;;;76.53;37.85;;;6.80;99.90;;;;;;5035033;28;20726;-80
2023/10/19 07:32:36;;;;;;;69.50;36.63;;;6.80;99.90;;;;;;5027575;28;20557;-80
2023/10/19 07:35:02;;;;;;;71.95;37.60;;;6.90;99.90;;;;;;5032427;28;20076;-83
2023/10/19 07:37:28;;;;;;;73.15;36.90;;;6.80;99.90;;;;;;5028380;28;20034;-81
2023/10/19 07:39:57;;;;;;;76.75;40.45;;;6.80;99.90;;;;;;5034443;28;20033;-81
2023/10/19 07:42:23;;;;;;;76.35;39.35;;;6.80;99.90;;;;;;5030717;28;20736;-81
2023/10/19 07:44:49;;;;;;;81.32;39.80;;;6.80;99.90;;;;;;5034207;28;20033;-83
2023/10/19 07:47:16;;;;;;;78.45;40.40;;;6.90;99.90;;;;;;5027790;28;20108;-80
2023/10/19 07:49:43;;;;;;;76.90;39.63;;;6.90;99.90;;;;;;5033046;28;20084;-79
2023/10/19 07:52:10;;;;;;;83.05;40.63;;;6.90;99.90;;;;;;5035434;28;20452;-81
2023/10/19 07:54:37;;;;;;;85.40;41.25;;;6.90;99.90;;;;;;5023082;28;20034;-79
2023/10/19 07:57:07;;;;;;;78.95;40.47;;;6.90;99.90;;;;;;5036710;28;21239;-81
2023/10/19 07:59:33;;;;;;;83.78;41.88;;;6.90;99.90;;;;;;5030972;28;20034;-82
2023/10/19 08:02:02;;;;;;;89.55;43.67;;;6.90;99.90;;;;;;5033481;28;20039;-81
2023/10/19 08:04:29;;;;;;;88.50;42.28;;;6.90;99.90;;;;;;5034698;28;20117;-82
2023/10/19 08:06:55;;;;;;;98.13;47.85;;;6.90;99.90;;;;;;5035937;28;20042;-81
2023/10/19 08:09:26;;;;;;;94.28;43.88;;;7.00;99.90;;;;;;5033433;28;20479;-81
2023/10/19 08:11:55;;;;;;;85.93;41.42;;;7.10;99.90;;;;;;5036164;28;20037;-81
2023/10/19 08:14:24;;;;;;;82.82;42.90;;;7.20;99.90;;;;;;5037984;28;20048;-80
2023/10/19 08:16:51;;;;;;;89.53;43.38;;;7.20;99.90;;;;;;5038206;28;20458;-80
2023/10/19 08:19:18;;;;;;;80.93;42.80;;;7.30;99.90;;;;;;5037465;28;20036;-80
2023/10/19 08:21:44;;;;;;;80.63;38.90;;;7.30;99.90;;;;;;5036793;28;20110;-80
2023/10/19 08:24:13;;;;;;;80.22;41.25;;;7.40;99.90;;;;;;5042679;28;20136;-81
2023/10/19 08:26:41;;;;;;;74.35;40.28;;;7.40;99.90;;;;;;5037731;28;20101;-81
2023/10/19 08:29:12;;;;;;;72.90;39.50;;;7.50;99.90;;;;;;5036111;28;20033;-81
2023/10/19 08:31:44;;;;;;;78.07;39.70;;;7.50;99.90;;;;;;5031267;28;20033;-80
2023/10/19 08:34:11;;;;;;;71.30;38.63;;;7.50;99.90;;;;;;5036386;28;20026;-80
2023/10/19 08:36:42;;;;;;;81.57;40.75;;;7.50;99.90;;;;;;5035263;28;20030;-80
2023/10/19 08:39:11;;;;;;;76.00;38.80;;;7.60;99.90;;;;;;5034494;28;20089;-80
2023/10/19 08:41:39;;;;;;;73.97;39.90;;;7.60;99.90;;;;;;5033349;28;20439;-82
2023/10/19 08:44:15;;;;;;;74.03;40.30;;;7.70;99.90;;;;;;5037976;28;20021;-81
2023/10/19 08:46:47;;;;;;;76.97;39.75;;;7.60;99.90;;;;;;5033016;28;20065;-80
2023/10/19 08:49:16;;;;;;;77.65;42.03;;;7.70;99.90;;;;;;5033618;28;20072;-82
2023/10/19 08:51:46;;;;;;;81.05;41.28;;;7.80;99.90;;;;;;5037019;28;20029;-82
2023/10/19 08:54:14;;;;;;;86.25;43.10;;;7.80;99.90;;;;;;5036821;28;20037;-81
2023/10/19 08:56:41;;;;;;;75.70;40.88;;;8.00;99.90;;;;;;5036479;28;20030;-80
2023/10/19 08:59:08;;;;;;;68.20;37.85;;;8.00;99.90;;;;;;5035827;28;20178;-80
2023/10/19 09:01:37;;;;;;;81.15;41.95;;;8.10;99.90;;;;;;5035832;28;20665;-80
2023/10/19 09:04:05;;;;;;;73.65;38.65;;;8.10;99.90;;;;;;5042407;28;20044;-79
2023/10/19 09:06:41;;;;;;;75.45;41.15;;;8.20;99.90;;;;;;5033791;28;20033;-80
2023/10/19 09:09:09;;;;;;;;;;;8.20;99.90;;;;;;5029984;28;20033;-81
2023/10/19 09:11:35;;;;;;;70.75;37.92;;;8.20;99.90;;;;;;5029232;28;19981;-81
2023/10/19 09:14:03;;;;;;;80.25;40.67;;;8.30;99.90;;;;;;5036298;28;20017;-79
2023/10/19 09:16:30;;;;;;;75.55;40.88;;;8.40;99.90;;;;;;5030732;28;20046;-80
2023/10/19 09:18:57;;;;;;;72.80;39.58;;;8.40;99.90;;;;;;5027531;28;20041;-80
2023/10/19 09:21:25;;;;;;;69.93;39.35;;;8.40;99.90;;;;;;5036062;28;20099;-81
2023/10/19 09:23:54;;;;;;;72.55;39.17;;;8.40;99.90;;;;;;5039155;28;20037;-81
2023/10/19 09:26:21;;;;;;;69.82;38.20;;;8.40;99.90;;;;;;5023626;28;20072;-81
2023/10/19 09:28:51;;;;;;;73.30;39.25;;;8.60;99.90;;;;;;5033562;28;20037;-80
2023/10/19 09:31:18;;;;;;;71.88;39.75;;;8.70;99.90;;;;;;5031063;28;20021;-81
2023/10/19 09:33:46;;;;;;;68.15;39.45;;;8.80;99.90;;;;;;5037606;28;20089;-80
2023/10/19 09:36:13;;;;;;;65.90;38.13;;;8.90;99.90;;;;;;5036482;28;20112;-80
2023/10/19 09:38:50;;;;;;;69.97;39.55;;;8.90;99.90;;;;;;5035778;28;20101;-80
2023/10/19 09:41:18;;;;;;;71.32;39.95;;;9.10;99.90;;;;;;5033091;28;20037;-80
2023/10/19 09:43:46;;;;;;;63.40;38.25;;;9.20;99.90;;;;;;5035796;28;20025;-79
2023/10/19 09:46:23;;;;;;;66.90;39.88;;;9.30;99.90;;;;;;5033864;28;20056;-79
2023/10/19 09:48:49;;;;;;;64.20;38.25;;;9.30;99.90;;;;;;5034937;28;20085;-79
2023/10/19 09:51:17;;;;;;;57.42;36.65;;;9.40;99.90;;;;;;5033681;28;20117;-80
2023/10/19 09:54:09;;;;;;;61.17;36.10;;;9.30;99.90;;;;;;5033730;28;20032;-80
2023/10/19 09:56:44;;;;;;;65.97;37.35;;;9.30;99.90;;;;;;5033338;28;20561;-79
2023/10/19 09:59:28;;;;;;;62.63;36.42;;;9.30;99.90;;;;;;5031751;28;20045;-79
2023/10/19 10:02:08;;;;;;;58.00;35.72;;;9.30;99.90;;;;;;5031216;28;20026;-80
2023/10/19 10:04:37;;;;;;;64.32;37.13;;;9.40;99.90;;;;;;5036129;28;20041;-81
2023/10/19 10:07:06;;;;;;;61.92;37.95;;;9.50;99.90;;;;;;5027196;28;20040;-80
2023/10/19 10:09:44;;;;;;;53.97;35.20;;;9.60;99.90;;;;;;5032123;28;20047;-80
2023/10/19 10:12:21;;;;;;;53.88;34.17;;;9.60;99.90;;;;;;5028136;28;20753;-80
2023/10/19 10:14:58;;;;;;;50.13;32.95;;;9.70;99.90;;;;;;5033862;28;20029;-80
2023/10/19 10:17:26;;;;;;;51.15;32.33;;;9.90;99.90;;;;;;5029330;28;20041;-80
2023/10/19 10:20:17;;;;;;;46.83;31.15;;;10.00;99.90;;;;;;5028073;28;20041;-80
2023/10/19 10:22:43;;;;;;;49.20;31.42;;;10.00;99.90;;;;;;5031436;28;20033;-81
2023/10/19 10:25:27;;;;;;;44.03;30.05;;;10.20;99.90;;;;;;5032600;28;20033;-79
2023/10/19 10:27:54;;;;;;;43.83;29.70;;;10.30;99.90;;;;;;5030198;28;20033;-80
2023/10/19 10:30:20;;;;;;;39.72;28.17;;;10.30;99.90;;;;;;5034167;28;20030;-79
2023/10/19 10:32:55;;;;;;;38.47;26.75;;;10.30;99.90;;;;;;5029322;28;20792;-79
2023/10/19 10:35:37;;;;;;;39.28;26.83;;;10.30;99.90;;;;;;5027692;28;20057;-79
2023/10/19 10:38:05;;;;;;;40.03;27.42;;;10.20;99.90;;;;;;5033778;28;20101;-79
2023/10/19 10:40:41;;;;;;;43.35;28.65;;;10.20;99.90;;;;;;5032316;28;20048;-80
2023/10/19 10:43:07;;;;;;;43.35;27.08;;;10.20;99.90;;;;;;5033406;28;20528;-80
2023/10/19 10:45:33;;;;;;;40.22;28.65;;;10.30;99.90;;;;;;5034005;28;20038;-80
2023/10/19 10:48:01;;;;;;;42.70;28.98;;;10.30;99.90;;;;;;5040828;28;20037;-80
2023/10/19 10:50:28;;;;;;;40.53;28.60;;;10.40;99.90;;;;;;5036713;28;20033;-80
2023/10/19 10:52:57;;;;;;;37.97;26.00;;;10.40;99.90;;;;;;5037285;28;20812;-78
2023/10/19 10:55:27;;;;;;;37.65;27.55;;;10.40;99.90;;;;;;5036925;28;20667;-81
2023/10/19 10:57:54;;;;;;;40.90;27.73;;;10.40;99.90;;;;;;5036811;28;20049;-79
2023/10/19 11:00:22;;;;;;;41.47;27.35;;;10.40;99.90;;;;;;5036301;28;20109;-79
2023/10/19 11:03:03;;;;;;;39.95;27.17;;;10.50;99.90;;;;;;5043635;28;20120;-82
2023/10/19 11:05:31;;;;;;;38.08;26.33;;;10.60;99.90;;;;;;5041383;28;20036;-81
2023/10/19 11:08:11;;;;;;;38.70;26.42;;;10.70;99.90;;;;;;5036878;28;20101;-79
2023/10/19 11:10:37;;;;;;;37.15;25.80;;;10.80;99.90;;;;;;5035573;28;20033;-81
2023/10/19 11:13:07;;;;;;;37.65;26.35;;;10.80;99.90;;;;;;5044925;28;20084;-79
2023/10/19 11:15:34;;;;;;;39.42;28.05;;;10.80;99.90;;;;;;5037759;28;20029;-82
2023/10/19 11:18:01;;;;;;;36.35;26.58;;;10.90;99.90;;;;;;5039085;28;20060;-79
2023/10/19 11:20:27;;;;;;;33.65;24.75;;;11.00;99.90;;;;;;5039506;28;20077;-79
2023/10/19 11:22:55;;;;;;;36.72;25.35;;;11.10;99.90;;;;;;5041580;28;20099;-81
2023/10/19 11:25:24;;;;;;;35.70;24.35;;;11.10;99.90;;;;;;5037388;28;20113;-80
2023/10/19 11:27:51;;;;;;;36.58;26.45;;;11.20;99.90;;;;;;5033501;28;20076;-79
2023/10/19 11:30:33;;;;;;;35.80;24.20;;;11.20;99.90;;;;;;5039361;28;20037;-80
2023/10/19 11:33:00;;;;;;;33.58;23.50;;;11.40;99.90;;;;;;5032694;28;20034;-81
2023/10/19 11:35:30;;;;;;;36.55;24.77;;;11.50;99.90;;;;;;5033067;28;20037;-80
2023/10/19 11:38:00;;;;;;;33.30;23.33;;;11.50;99.90;;;;;;5036413;28;20090;-80
2023/10/19 11:40:27;;;;;;;33.30;23.67;;;11.60;99.90;;;;;;5037228;28;20409;-80
2023/10/19 11:42:56;;;;;;;32.10;22.83;;;11.50;99.90;;;;;;5036436;28;20044;-80
2023/10/19 11:45:25;;;;;;;33.00;23.90;;;11.50;99.90;;;;;;5033386;28;20052;-80
2023/10/19 11:47:52;;;;;;;33.97;24.55;;;11.50;99.90;;;;;;5036422;28;20037;-80
2023/10/19 11:50:19;;;;;;;37.42;25.35;;;11.40;99.90;;;;;;5037791;28;20061;-79
2023/10/19 11:52:46;;;;;;;34.13;24.25;;;11.40;99.90;;;;;;5036933;28;20040;-80
2023/10/19 11:55:15;;;;;;;37.35;26.20;;;11.40;99.90;;;;;;5035584;28;20021;-80
2023/10/19 11:57:44;;;;;;;35.38;26.35;;;11.40;99.90;;;;;;5036045;28;20034;-80
2023/10/19 12:00:37;;;;;;;38.75;26.55;;;11.40;99.90;;;;;;5035712;28;20052;-80
2023/10/19 12:03:04;;;;;;;33.92;24.25;;;11.50;99.90;;;;;;5037065;28;20048;-80
2023/10/19 12:05:30;;;;;;;35.45;24.83;;;11.50;99.90;;;;;;5035819;28;20029;-81
2023/10/19 12:07:56;;;;;;;34.75;24.73;;;11.60;99.90;;;;;;5030336;28;20037;-80
2023/10/19 12:10:32;;;;;;;36.75;25.15;;;11.70;99.90;;;;;;5028738;28;20048;-80
2023/10/19 12:12:58;;;;;;;33.00;23.17;;;11.80;99.90;;;;;;5032746;28;20042;-80
2023/10/19 12:15:25;;;;;;;31.45;23.23;;;11.90;99.90;;;;;;5034083;28;20041;-78
2023/10/19 12:17:51;;;;;;;34.47;25.70;;;12.00;99.90;;;;;;5032290;28;20034;-81
2023/10/19 12:20:21;;;;;;;33.25;23.88;;;11.90;99.90;;;;;;5032132;28;20057;-81
2023/10/19 12:22:48;;;;;;;34.20;24.15;;;11.90;99.90;;;;;;5033468;28;20025;-79
2023/10/19 12:25:14;;;;;;;35.53;24.55;;;11.80;99.90;;;;;;5034118;28;20144;-79
2023/10/19 12:27:40;;;;;;;34.40;24.73;;;11.80;99.90;;;;;;5027249;28;20025;-80
2023/10/19 12:30:19;;;;;;;34.78;24.58;;;11.80;99.90;;;;;;5031994;28;20030;-79
2023/10/19 12:32:45;;;;;;;34.45;24.45;;;11.80;99.90;;;;;;5035044;28;20075;-79
2023/10/19 12:35:11;;;;;;;35.20;24.88;;;11.90;99.90;;;;;;5028331;28;20017;-82
2023/10/19 12:37:46;;;;;;;31.95;23.50;;;11.90;99.90;;;;;;5027929;28;20109;-79
2023/10/19 12:40:28;;;;;;;34.47;23.55;;;11.90;99.90;;;;;;5027273;28;20449;-82
2023/10/19 12:42:54;;;;;;;33.40;24.02;;;12.00;99.90;;;;;;5033211;28;20048;-82
2023/10/19 12:45:25;;;;;;;33.40;23.65;;;11.90;99.90;;;;;;5030024;28;20044;-82
2023/10/19 12:47:54;;;;;;;32.70;24.35;;;11.90;99.90;;;;;;5024506;28;20041;-81
2023/10/19 12:50:24;;;;;;;31.42;23.08;;;11.90;99.90;;;;;;5031624;28;20043;-81
2023/10/19 12:52:50;;;;;;;32.60;23.58;;;11.90;99.90;;;;;;5035025;28;20017;-80
2023/10/19 12:55:19;;;;;;;36.08;24.75;;;12.00;99.90;;;;;;5035719;28;20026;-80
2023/10/19 12:57:45;;;;;;;36.72;26.65;;;12.00;99.90;;;;;;5055017;28;20088;-81
2023/10/19 13:00:29;;;;;;;35.03;24.92;;;11.90;99.90;;;;;;5034724;28;20037;-79
2023/10/19 13:03:00;;;;;;;35.17;25.30;;;11.80;99.90;;;;;;5044607;28;20037;-80
2023/10/19 13:05:37;;;;;;;37.22;25.05;;;11.80;99.90;;;;;;5039346;28;20068;-78